Terminal Aerodrome Forecast
Issued by NWS Albany, NY

Home | Current Version | Previous Version | Text Only | Print | Product List | Glossary On
Versions: 1 2 3 4 5 6 7 8 9 10 11 12 13 14 15 16 17 18 19 20 21 22
277
FTUS41 KALY 252320
TAFALB
TAF
KALB 252320Z 2600/2624 25007KT P6SM SCT050 SCT070
      TEMPO 2600/2604 -SHRA BKN050
     FM260900 23003KT P6SM BCFG FEW045
     FM261300 25006KT P6SM SCT045
     FM261600 25007KT P6SM VCSH BKN050 BKN100=

USA.gov is the U.S. government's official web portal to all federal, state and local government web resources and services.